Sagehen Creek Weather observations

Data are for observation ending at time listed.
 Day   Time    Ave.   Ave.  Ave.  Vector   Max.   Stn.    Total    Solar   Ave.  
  of    of     Air    Rel.  Wind   Wind    Wind   Baro.  Precip.   Rad.    Soil  
Year   Day     Temp.  Hum.  Speed  Dir.    Gust   Pres.                    Temp. 
2014   (PST)    F      %     mph   deg.    mph     mb.     in.     W/m2     F   
------------------------------------------------------------------------------
 291   20:20   34.0    82    0.6   248      1.1   835.4   13.58       0    999.0
 291   20:30   33.6    82    0.3   245      1.1   835.5   13.58       0    999.0
 291   20:40   33.3    83    0.6   257      1.4   835.8   13.58       0    999.0
 291   20:50   33.0    83    0.5   248      1.1   835.9   13.58       0    999.0
 291   21:00   32.6    84    0.5   255      1.0   835.9   13.58       0    999.0
 291   21:10   32.4    84    0.6   253      1.2   835.8   13.58       0    999.0
 291   21:20   32.1    85    0.5   246      1.0   835.8   13.58       0    999.0
 291   21:30   31.8    85    0.4   254      1.0   835.8   13.58       0    999.0
 291   21:40   31.6    86    0.7   261      1.1   836.0   13.58       0    999.0
 291   21:50   31.4    86    0.4   258      1.1   835.8   13.58       0    999.0
 291   22:00   31.1    86    0.9   254      1.3   835.6   13.58       0    999.0
 291   22:10   31.0    87    0.5   254      1.1   835.8   13.58       0    999.0
 291   22:20   30.7    87    0.5   265      1.0   835.8   13.58       0    999.0
 291   22:30   30.5    87    0.7   257      1.1   835.8   13.58       0    999.0
 291   22:40   30.3    88    0.4   258      1.0   835.3   13.58       0    999.0
 291   22:50   30.1    88    0.5   264      1.2   835.5   13.58       0    999.0
 291   23:00   29.9    88    0.8   265      1.2   835.7   13.58       0    999.0
 291   23:10   29.7    88    0.5   263      1.1   835.7   13.58       0    999.0
 291   23:20   29.6    88    0.6   267      1.3   835.5   13.58       0    999.0
 291   23:30   29.4    89    0.8   260      1.2   835.2   13.58       0    999.0
 291   23:40   29.2    89    0.8   265      1.1   835.6   13.58       0    999.0
 291   23:50   29.0    89    0.4   268      1.0   835.6   13.58       0    999.0
 292    0:00   28.9    90    0.5   262      1.3   835.6   13.58       0    999.0
 292    0:10   28.7    90    0.5   262      1.2   835.2   13.58       0    999.0
 292    0:20   28.6    90    0.4   260      0.8   835.3   13.58       0    999.0
 292    0:30   28.5    90    0.6   272      1.2   835.4   13.58       0    999.0
 292    0:40   28.3    91    1.0   268      1.5   835.3   13.58       0    999.0
 292    0:50   28.2    91    0.7   262      1.3   835.3   13.58       0    999.0
 292    1:00   28.1    91    0.7   268      1.4   835.4   13.58       0    999.0
 292    1:10   28.0    91    0.8   269      1.3   835.3   13.58       0    999.0
 292    1:20   27.9    92    0.6   269      1.1   835.5   13.58       0    999.0
 292    1:30   27.8    92    0.6   262      1.0   835.8   13.58       0    999.0
 292    1:40   27.8    92    0.4   264      1.1   835.6   13.58       0    999.0
 292    1:50   27.6    92    0.4   263      1.1   835.4   13.58       0    999.0
 292    2:00   27.4    92    0.4   268      0.9   835.2   13.58       0    999.0
 292    2:10   27.3    92    0.5   274      0.9   835.0   13.58       0    999.0
 292    2:20   27.1    92    0.7   274      1.2   835.3   13.58       0    999.0
 292    2:30   27.1    92    0.6   276      1.0   835.5   13.58       0    999.0
 292    2:40   27.0    92    0.4   257      1.1   835.0   13.58       0    999.0
 292    2:50   27.0    93    0.2   268      1.3   835.1   13.58       0    999.0
 292    3:00   27.0    93    0.7   276      1.5   835.1   13.58       0    999.0
 292    3:10   27.0    93    0.5   273      1.8   835.4   13.58       0    999.0
 292    3:20   27.0    93    0.8   282      2.2   835.3   13.58       0    999.0
 292    3:30   27.1    93    0.4   270      1.9   835.1   13.58       0    999.0
 292    3:40   27.0    93    0.4   274      1.6   835.2   13.58       0    999.0
 292    3:50   27.0    93    0.7   270      1.5   835.4   13.58       0    999.0
 292    4:00   27.0    93    0.4   279      1.1   835.5   13.58       0    999.0
 292    4:10   26.9    93    0.4   255      1.3   835.3   13.58       0    999.0
 292    4:20   26.8    93    0.3   280      1.0   835.4   13.58       0    999.0
 292    4:30   26.7    93    0.3   272      0.9   835.5   13.58       0    999.0
 292    4:40   26.7    93    0.2   280      0.9   835.6   13.58       0    999.0
 292    4:50   26.5    93    0.2   265      1.1   835.5   13.58       0    999.0
 292    5:00   26.5    93    0.2   265      0.8   835.3   13.58       0    999.0
 292    5:10   26.4    93    0.3   262      0.9   834.9   13.58       0    999.0
 292    5:20   26.4    93    0.5   275      1.4   835.2   13.58       0    999.0
 292    5:30   26.3    93    0.4   273      1.2   835.5   13.58       0    999.0
 292    5:40   26.3    93    0.3   263      0.8   835.3   13.58       0    999.0
 292    5:50   26.3    93    0.2   273      1.0   835.4   13.58       0    999.0
 292    6:00   26.2    93    0.2   267      1.2   835.5   13.58       0    999.0
 292    6:10   26.1    93    0.2   270      0.9   835.6   13.58       1    999.0
 292    6:20   26.1    93    0.1   283      0.7   835.5   13.58       3    999.0
 292    6:30   26.1    93    0.5   266      1.6   835.5   13.58       6    999.0
 292    6:40   26.0    93    0.0   270      0.6   835.2   13.58       9    999.0
 292    6:50   26.1    93    0.1   263      1.0   835.4   13.58      11    999.0
 292    7:00   26.3    93    0.3   258      1.0   835.6   13.58      19    999.0
 292    7:10   26.5    93    0.1   268      0.9   835.6   13.58      24    999.0
 292    7:20   27.0    93    0.0     0      0.0   835.4   13.58      25    999.0
 292    7:30   27.4    93    0.0     0      0.0   835.2   13.58      26    999.0
 292    7:40   27.9    93    0.0     0      0.0   835.6   13.58      34    999.0
 292    7:50   28.8    93    0.1   192      1.1   835.7   13.58     245    999.0
 292    8:00   30.4    93    0.2   183      1.3   835.7   13.58     286    999.0
 292    8:10   31.5    92    0.2   176      1.5   835.9   13.58     308    999.0
 292    8:20   33.5    92    0.1   143      1.1   835.8   13.58     341    999.0
 292    8:30   37.7    84    0.5   157      2.8   835.7   13.58     370    999.0
 292    8:40   41.3    75    0.5   133      1.9   835.6   13.58     397    999.0
 292    8:50   45.0    68    0.4   129      1.6   835.6   13.58     422    999.0
 292    9:00   48.2    64    1.4   104      2.7   835.6   13.58     445    999.0
 292    9:10   50.9    56    2.6    88      4.9   835.6   13.58     468    999.0
 292    9:20   54.2    48    2.1    89      3.8   835.6   13.58     491    999.0
 292    9:30   57.2    41    1.8    91      4.5   835.7   13.58     516    999.0
 292    9:40   59.5    36    2.5    83      5.6   835.5   13.57     537    999.0
 292    9:50   60.6    33    2.0   137      5.7   835.4   13.57     557    999.0
 292   10:00   61.6    29    2.1   214      4.6   835.3   13.57     578    999.0
 292   10:10   62.5    29    2.2   224      6.1   835.7   13.57     591    999.0
 292   10:20   62.8    28    2.5   147      8.0   835.6   13.57     599    999.0
 292   10:30   63.2    27    1.8   166      4.4   835.5   13.57     628    999.0
 292   10:40   63.4    27    2.4   136      7.7   835.3   13.57     642    999.0
 292   10:50   63.4    27    2.7   275      7.1   835.4   13.57     653    999.0
 292   11:00   64.0    27    2.1   210      5.9   835.4   13.57     663    999.0
 292   11:10   64.0    26    2.9   216      6.5   835.8   13.56     673    999.0
 292   11:20   63.9    25    2.8   205      7.9   835.7   13.56     677    999.0
 292   11:30   64.2    24    1.8   135      4.7   835.7   13.56     681    999.0
 292   11:40   65.1    24    2.5   136      6.9   835.5   13.56     686    999.0
 292   11:50   64.8    24    2.4   221      5.6   835.5   13.56     686    999.0
 292   12:00   64.6    25    3.3   222      7.4   835.4   13.56     686    999.0
 292   12:10   65.0    24    3.4   144      6.7   835.1   13.56     681    999.0
 292   12:20   65.5    24    2.4   266      7.0   835.1   13.56     678    999.0
 292   12:30   65.5    24    2.8   269      6.7   835.0   13.56     674    999.0
 292   12:40   65.3    24    3.4   117      8.1   834.6   13.56     667    999.0
 292   12:50   65.0    24    3.1   143      8.7   834.7   13.56     654    999.0
 292   13:00   66.4    23    1.9   260      5.7   834.8   13.56     645    999.0
 292   13:10   66.5    22    3.2   268      7.1   834.5   13.57     635    999.0
 292   13:20   64.9    24    2.4   262      7.0   834.5   13.57     619    999.0
 292   13:30   64.6    24    2.4   223      7.1   834.5   13.57     606    999.0
 292   13:40   65.6    23    2.7   173      7.5   834.4   13.57     590    999.0
 292   13:50   65.4    24    1.1   200      5.4   834.3   13.57     569    999.0
 292   14:00   66.0    23    1.8   143      5.0   834.3   13.57     550    999.0
 292   14:10   65.5    23    3.4   178     11.0   834.5   13.57     530    999.0
 292   14:20   65.1    23    3.7   293      7.9   834.6   13.56     508    999.0
 292   14:30   64.7    25    2.2   249      5.8   834.7   13.56     483    999.0
 292   14:40   64.6    25    1.8   168      5.8   834.7   13.56     425    999.0
 292   14:50   64.2    26    2.2   234      8.4   834.7   13.57     431    999.0
 292   15:00   63.9    26    2.2   279      5.4   834.6   13.57     404    999.0
 292   15:10   62.6    29    1.9   212      6.3   834.7   13.57     319    999.0
 292   15:20   61.3    30    2.2   254      5.2   834.6   13.57      79    999.0
 292   15:30   61.1    30    2.4   284      4.8   834.5   13.57      32    999.0
 292   15:40   60.5    32    1.6   188      4.7   834.3   13.57      49    999.0
 292   15:50   59.9    33    2.2   271      5.3   834.2   13.57      25    999.0
 292   16:00   59.6    33    2.7   273      6.7   834.2   13.57      23    999.0
 292   16:10   59.0    35    2.6   283     10.1   834.7   13.57      22    999.0
 292   16:20   58.4    35    2.3   275      6.3   834.7   13.57      19    999.0
 292   16:30   58.0    36    2.4   283      7.6   834.7   13.57      18    999.0
 292   16:40   57.4    37    2.0   268      3.7   834.3   13.58      15    999.0
 292   16:50   55.3    43    1.5   253      4.5   834.4   13.57      10    999.0
 292   17:00   54.4    43    0.7   254      2.2   834.5   13.57       7    999.0
 292   17:10   52.5    49    1.2   245      4.2   834.2   13.57       5    999.0
 292   17:20   52.2    47    1.3   277      3.3   834.3   13.57       3    999.0
 292   17:30   50.5    53    1.5   270      2.3   834.4   13.58       1    999.0
 292   17:40   49.0    56    1.4   259      2.6   834.3   13.58       0    999.0
 292   17:50   48.3    56    1.6   272      3.3   834.4   13.58       0    999.0
 292   18:00   48.3    56    1.6   264      3.7   834.6   13.58       0    999.0
 292   18:10   47.1    60    1.4   227      2.5   834.6   13.58       0    999.0
 292   18:20   47.0    58    1.4   268      5.0   834.6   13.58       0    999.0
 292   18:30   47.6    56    1.5   248      4.6   834.6   13.57       0    999.0
 292   18:40   48.3    54    0.9   242      3.2   834.4   13.58       0    999.0
 292   18:50   48.1    54    0.9   266      4.3   834.3   13.57       0    999.0
 292   19:00   48.5    54    1.4   258      3.4   834.2   13.57       0    999.0
 292   19:10   47.6    56    0.8   280      2.5   834.5   13.58       0    999.0
 292   19:20   46.9    56    0.6   261      3.8   834.5   13.58       0    999.0
 292   19:30   46.0    58    0.4   242      3.1   834.6   13.58       0    999.0
 292   19:40   44.2    62    0.3   141      2.3   834.5   13.58       0    999.0
 292   19:50   42.7    64    0.3   224      2.2   834.6   13.58       0    999.0
 292   20:00   42.7    66    1.0   263      3.7   834.6   13.58       0    999.0
 292   20:10   43.9    63    1.5   271      3.7   834.7   13.58       0    999.0

Return to Sagehen Creek graphs page.


Western Regional Climate Center,wrcc@dri.edu